Forside
METAR-TAF:

METAR-TAF

Lufthavne :

Wallis, Frankrig

Breddekreds: 13-14S, længdekreds: 176-10W, højde: 23 m

METAR: fraværende

Tid: 21:29 (09:29 UTC)

Vejrudsigter

Denne rapport blev lavet for 4 timer og 29 minutter siden, kl. 05:00 UTC
Foreløbig gælder fra 23 på 06 UTC til 24 på 06 UTC
Vind 8 kt fra sydsydøst
Sigt 10 km eller mere
Brudte skyer i en højde af 1800 ft
Sandsynlighed 40% :
Midlertidig
fra 23 på 06 UTC til 23 på 07 UTC
Sigt: 3000 m
Brudte skyer i en højde af 1200 ft
regnbyger

TAF: NLWW 230500Z 2306/2406 15008KT 9999 BKN018 PROB40 TEMPO 2306/2307 3000 SHRA BKN012

Vejrobservationer og prognoser fra mere end 4000 lufthavne (METAR og TAF).

De gule og røde prikker repræsenterer de meteorologiske stationer.

Flyt musen over at se navnet på stationen.

Så klik over at se vejr observationer og prognoser.

At skifte det kort: Klik på de grønne knapper med et sort kors for at zoome ind; på den grønne knap med en bindestreg for at zoome ud; eller på de grønne pile for tilstødende kort.


METAR-TAF: